createdAt,value
2023-03-02T00:00:10.325Z,7.52
2023-03-02T00:00:41.803Z,7.69
2023-03-02T00:01:13.213Z,7.71
2023-03-02T00:01:44.624Z,6.54
2023-03-02T00:02:16.132Z,8.24
2023-03-02T00:02:47.634Z,7.70
2023-03-02T00:03:19.076Z,7.23
2023-03-02T00:03:50.565Z,8.68
2023-03-02T00:04:22.012Z,7.62
2023-03-02T00:04:53.446Z,7.80
2023-03-02T00:05:24.841Z,7.15
2023-03-02T00:05:56.270Z,7.05
2023-03-02T00:06:27.702Z,7.33
2023-03-02T00:06:59.094Z,7.38
2023-03-02T00:07:30.486Z,7.97
2023-03-02T00:08:01.923Z,7.45
2023-03-02T00:08:33.327Z,7.12
2023-03-02T00:09:04.724Z,7.55
2023-03-02T00:09:36.130Z,8.24
2023-03-02T00:10:07.544Z,6.79
2023-03-02T00:10:38.931Z,7.77
2023-03-02T00:11:10.349Z,7.42
2023-03-02T00:11:41.739Z,7.16
2023-03-02T00:12:13.135Z,7.71
2023-03-02T00:12:44.562Z,6.93
2023-03-02T00:13:16.283Z,7.76
2023-03-02T00:13:47.694Z,7.41
2023-03-02T00:14:19.112Z,7.36
2023-03-02T00:14:50.524Z,6.97
2023-03-02T00:15:21.921Z,7.23
2023-03-02T00:15:53.393Z,6.91
2023-03-02T00:16:24.945Z,7.04
2023-03-02T00:16:56.386Z,7.23
2023-03-02T00:17:27.832Z,7.89
2023-03-02T00:17:59.264Z,6.59
2023-03-02T00:18:30.671Z,7.21
2023-03-02T00:19:02.094Z,7.12
2023-03-02T00:19:33.513Z,7.50
2023-03-02T00:20:04.981Z,6.72
2023-03-02T00:20:36.405Z,7.45
2023-03-02T00:21:07.842Z,6.97
2023-03-02T00:21:39.283Z,7.32
2023-03-02T00:22:11.268Z,7.98
2023-03-02T00:22:42.778Z,7.11
2023-03-02T00:23:14.176Z,7.31
2023-03-02T00:23:45.572Z,7.06
2023-03-02T00:24:16.973Z,6.73
2023-03-02T00:24:48.569Z,6.75
2023-03-02T00:25:20.012Z,7.03
2023-03-02T00:25:51.421Z,6.31
2023-03-02T00:26:22.835Z,7.69
2023-03-02T00:26:54.272Z,7.10
2023-03-02T00:27:25.688Z,7.39
2023-03-02T00:27:57.134Z,6.61
2023-03-02T00:28:28.543Z,7.13
2023-03-02T00:28:59.955Z,6.79
2023-03-02T00:29:31.465Z,6.57
2023-03-02T00:30:02.890Z,6.97
2023-03-02T00:30:34.298Z,6.78
2023-03-02T00:31:05.747Z,6.84
2023-03-02T00:31:37.195Z,6.79
2023-03-02T00:32:08.658Z,7.27
2023-03-02T00:32:40.131Z,7.08
2023-03-02T00:33:11.568Z,7.43
2023-03-02T00:33:42.987Z,7.06
2023-03-02T00:34:14.380Z,6.86
2023-03-02T00:34:45.774Z,7.62
2023-03-02T00:35:17.192Z,6.46
2023-03-02T00:35:48.610Z,6.73
2023-03-02T00:36:20.020Z,6.67
2023-03-02T00:36:51.444Z,7.03
2023-03-02T00:37:22.858Z,6.40
2023-03-02T00:37:54.271Z,6.74
2023-03-02T00:38:25.669Z,6.52
2023-03-02T00:38:57.070Z,6.43
2023-03-02T00:39:28.486Z,6.74
2023-03-02T00:39:59.892Z,6.31
2023-03-02T00:40:31.291Z,6.83
2023-03-02T00:41:02.702Z,7.50
2023-03-02T00:41:34.124Z,7.82
2023-03-02T00:42:05.517Z,6.65
2023-03-02T00:42:36.927Z,6.92
2023-03-02T00:43:08.331Z,6.88
2023-03-02T00:43:39.820Z,6.73
2023-03-02T00:44:11.211Z,6.79
2023-03-02T00:44:42.621Z,6.91
2023-03-02T00:45:14.062Z,6.33
2023-03-02T00:45:45.489Z,6.32
2023-03-02T00:46:17.020Z,7.01
2023-03-02T00:46:48.473Z,6.55
2023-03-02T00:47:19.878Z,6.92
2023-03-02T00:47:51.288Z,5.35
2023-03-02T00:48:22.705Z,7.36
2023-03-02T00:48:54.157Z,6.67
2023-03-02T00:49:25.571Z,6.95
2023-03-02T00:49:56.974Z,6.38
2023-03-02T00:50:28.364Z,7.41
2023-03-02T00:50:59.763Z,7.25
2023-03-02T00:51:31.174Z,7.56
2023-03-02T00:52:02.577Z,7.40
2023-03-02T00:52:33.997Z,7.38
2023-03-02T00:53:05.437Z,7.14
2023-03-02T00:53:36.867Z,7.08
2023-03-02T00:54:08.323Z,6.52
2023-03-02T00:54:39.729Z,6.36
2023-03-02T00:55:11.143Z,6.98
2023-03-02T00:55:42.557Z,5.78
2023-03-02T00:56:13.966Z,5.97
2023-03-02T00:56:45.361Z,6.62
2023-03-02T00:57:16.775Z,6.16
2023-03-02T00:57:48.192Z,6.12
2023-03-02T00:58:19.601Z,5.99
2023-03-02T00:58:51.003Z,6.54
2023-03-02T00:59:22.436Z,6.61
2023-03-02T00:59:53.854Z,6.52
2023-03-02T01:00:25.248Z,6.31
2023-03-02T01:00:56.668Z,5.85
2023-03-02T01:01:28.065Z,5.96
2023-03-02T01:01:59.504Z,6.58
2023-03-02T01:02:31.060Z,6.18
2023-03-02T01:03:02.538Z,6.38
2023-03-02T01:03:34.019Z,5.90
2023-03-02T01:04:05.458Z,6.38
2023-03-02T01:04:36.881Z,6.83
2023-03-02T01:05:08.287Z,6.66
2023-03-02T01:05:39.684Z,6.31
2023-03-02T01:06:11.090Z,6.90
2023-03-02T01:06:42.544Z,6.22
2023-03-02T01:07:13.959Z,6.10
2023-03-02T01:07:45.374Z,6.85
2023-03-02T01:08:16.802Z,6.62
2023-03-02T01:08:48.213Z,5.85
2023-03-02T01:09:19.631Z,6.17
2023-03-02T01:09:51.088Z,6.36
2023-03-02T01:10:22.502Z,6.59
2023-03-02T01:10:54.422Z,6.55
2023-03-02T01:11:25.902Z,6.38
2023-03-02T01:11:57.337Z,7.18
2023-03-02T01:12:28.759Z,6.47
2023-03-02T01:13:00.180Z,5.50
2023-03-02T01:13:31.589Z,6.23
2023-03-02T01:14:03.003Z,6.05
2023-03-02T01:14:34.438Z,6.33
2023-03-02T01:15:05.873Z,6.00
2023-03-02T01:15:37.277Z,5.63
2023-03-02T01:16:08.711Z,6.31
2023-03-02T01:16:40.144Z,6.18
2023-03-02T01:17:11.617Z,6.10
2023-03-02T01:17:43.048Z,6.20
2023-03-02T01:18:14.447Z,5.69
2023-03-02T01:18:45.836Z,6.31
2023-03-02T01:19:17.256Z,6.65
2023-03-02T01:19:48.675Z,6.51
2023-03-02T01:20:20.135Z,6.36
2023-03-02T01:20:51.554Z,6.32
2023-03-02T01:21:22.969Z,5.94
2023-03-02T01:21:54.363Z,6.12
2023-03-02T01:22:25.902Z,5.55
2023-03-02T01:22:57.300Z,6.11
2023-03-02T01:23:28.746Z,6.86
2023-03-02T01:24:00.155Z,6.14
2023-03-02T01:24:31.578Z,6.61
2023-03-02T01:25:02.997Z,5.93
2023-03-02T01:25:34.449Z,5.63
2023-03-02T01:26:05.840Z,5.58
2023-03-02T01:26:37.244Z,5.63
2023-03-02T01:27:08.631Z,5.20
2023-03-02T01:27:40.025Z,6.15
2023-03-02T01:28:11.434Z,6.54
2023-03-02T01:28:42.828Z,5.81
2023-03-02T01:29:14.238Z,6.21
2023-03-02T01:29:45.662Z,5.38
2023-03-02T01:30:17.079Z,6.23
2023-03-02T01:30:48.517Z,6.61
2023-03-02T01:31:19.947Z,5.67
2023-03-02T01:31:51.511Z,5.64
2023-03-02T01:32:23.133Z,6.13
2023-03-02T01:32:54.579Z,6.15
2023-03-02T01:33:25.989Z,5.55
2023-03-02T01:33:57.398Z,5.77
2023-03-02T01:34:28.800Z,5.37
2023-03-02T01:35:00.219Z,5.98
2023-03-02T01:35:31.661Z,5.96
2023-03-02T01:36:03.119Z,6.02
2023-03-02T01:36:34.899Z,6.33
2023-03-02T01:37:06.441Z,6.13
2023-03-02T01:37:37.876Z,5.87
2023-03-02T01:38:09.293Z,5.73
2023-03-02T01:38:40.828Z,5.81
2023-03-02T01:39:12.291Z,6.27
2023-03-02T01:39:43.706Z,6.25
2023-03-02T01:40:15.123Z,5.40
2023-03-02T01:40:46.524Z,5.46
2023-03-02T01:41:17.960Z,5.63
2023-03-02T01:41:49.352Z,5.91
2023-03-02T01:42:20.774Z,6.16
2023-03-02T01:42:52.221Z,5.45
2023-03-02T01:43:23.633Z,5.78
2023-03-02T01:43:55.044Z,5.34
2023-03-02T01:44:26.434Z,5.44
2023-03-02T01:44:57.833Z,5.42
2023-03-02T01:45:29.281Z,6.11
2023-03-02T01:46:00.695Z,6.10
2023-03-02T01:46:32.323Z,5.13
2023-03-02T01:47:03.928Z,5.84
2023-03-02T01:47:35.326Z,5.70
2023-03-02T01:48:06.768Z,5.44
2023-03-02T01:48:38.158Z,5.76
2023-03-02T01:49:09.572Z,5.17
2023-03-02T01:49:40.973Z,5.47
2023-03-02T01:50:12.366Z,5.76
2023-03-02T01:50:43.792Z,5.40
2023-03-02T01:51:15.199Z,5.58
2023-03-02T01:51:46.617Z,6.18
2023-03-02T01:52:18.028Z,5.42
2023-03-02T01:52:49.440Z,5.78
2023-03-02T01:53:20.883Z,5.72
2023-03-02T01:53:53.623Z,5.22
2023-03-02T01:54:25.985Z,5.91
2023-03-02T01:54:57.400Z,5.85
2023-03-02T01:55:28.785Z,5.24
2023-03-02T01:56:00.175Z,5.68
2023-03-02T01:56:31.788Z,5.56
2023-03-02T01:57:03.316Z,5.31
2023-03-02T01:57:34.705Z,5.78
2023-03-02T01:58:06.127Z,5.53
2023-03-02T01:58:37.547Z,5.16
2023-03-02T01:59:08.961Z,5.78
2023-03-02T01:59:40.376Z,5.99
2023-03-02T02:00:11.785Z,5.88
2023-03-02T02:00:43.226Z,5.92
2023-03-02T02:01:14.688Z,5.56
2023-03-02T02:01:46.116Z,5.71
2023-03-02T02:02:17.509Z,5.86
2023-03-02T02:02:48.940Z,5.57
2023-03-02T02:03:20.364Z,5.50
2023-03-02T02:03:51.845Z,5.36
2023-03-02T02:04:23.401Z,6.38
2023-03-02T02:04:54.868Z,5.74
2023-03-02T02:05:26.264Z,5.61
2023-03-02T02:05:57.673Z,5.51
2023-03-02T02:06:29.152Z,5.19
2023-03-02T02:07:00.670Z,5.53
2023-03-02T02:07:32.080Z,5.22
2023-03-02T02:08:03.523Z,5.71
2023-03-02T02:08:34.944Z,5.67
2023-03-02T02:09:06.361Z,5.24
2023-03-02T02:09:37.767Z,5.03
2023-03-02T02:10:09.168Z,5.59
2023-03-02T02:10:40.594Z,5.51
2023-03-02T02:11:12.007Z,5.48
2023-03-02T02:11:43.406Z,5.75
2023-03-02T02:12:14.759Z,5.51
2023-03-02T02:12:46.195Z,5.48
2023-03-02T02:13:17.638Z,5.61
2023-03-02T02:13:49.032Z,5.58
2023-03-02T02:14:20.497Z,5.86
2023-03-02T02:14:51.942Z,5.28
2023-03-02T02:15:23.338Z,4.99
2023-03-02T02:15:54.735Z,5.07
2023-03-02T02:16:26.197Z,5.15
2023-03-02T02:16:57.659Z,5.19
2023-03-02T02:17:29.106Z,4.94
2023-03-02T02:18:00.511Z,5.12
2023-03-02T02:18:31.932Z,5.08
2023-03-02T02:19:03.355Z,4.69
2023-03-02T02:19:34.773Z,4.84
2023-03-02T02:20:06.162Z,5.05
2023-03-02T02:20:37.567Z,5.52
2023-03-02T02:21:08.961Z,5.08
2023-03-02T02:21:40.377Z,5.41
2023-03-02T02:22:11.774Z,5.26
2023-03-02T02:22:43.189Z,4.88
2023-03-02T02:23:14.623Z,5.88
2023-03-02T02:23:46.042Z,5.39
2023-03-02T02:24:17.439Z,5.32
2023-03-02T02:24:48.838Z,5.64
2023-03-02T02:25:20.243Z,5.88
2023-03-02T02:25:51.642Z,4.87
2023-03-02T02:26:23.038Z,5.18
2023-03-02T02:26:54.433Z,5.41
2023-03-02T02:27:25.841Z,5.74
2023-03-02T02:27:57.236Z,5.26
2023-03-02T02:28:28.627Z,4.75
2023-03-02T02:29:00.035Z,5.02
2023-03-02T02:29:31.441Z,5.44
2023-03-02T02:30:02.895Z,5.66
2023-03-02T02:30:34.319Z,5.31
2023-03-02T02:31:05.734Z,5.52
2023-03-02T02:31:37.130Z,5.42
2023-03-02T02:32:08.718Z,5.12
2023-03-02T02:32:40.245Z,5.85
2023-03-02T02:33:11.663Z,5.26
2023-03-02T02:33:43.068Z,5.43
2023-03-02T02:34:14.506Z,5.38
2023-03-02T02:34:45.908Z,5.69
2023-03-02T02:35:17.350Z,5.06
2023-03-02T02:35:48.790Z,5.27
2023-03-02T02:36:20.220Z,5.21
2023-03-02T02:36:51.646Z,4.94
2023-03-02T02:37:23.053Z,5.55
2023-03-02T02:37:54.477Z,5.09
2023-03-02T02:38:25.881Z,5.16
2023-03-02T02:38:57.286Z,5.21
2023-03-02T02:39:28.719Z,4.85
2023-03-02T02:40:00.142Z,4.96
2023-03-02T02:40:31.582Z,5.42
2023-03-02T02:41:03.006Z,4.99
2023-03-02T02:41:34.437Z,5.59
2023-03-02T02:42:05.851Z,5.46
2023-03-02T02:42:37.263Z,5.73
2023-03-02T02:43:08.670Z,5.07
2023-03-02T02:43:40.122Z,5.03
2023-03-02T02:44:11.546Z,5.84
2023-03-02T02:44:42.939Z,4.61
2023-03-02T02:45:14.358Z,4.77
2023-03-02T02:45:45.877Z,5.10
2023-03-02T02:46:17.441Z,4.87
2023-03-02T02:46:48.899Z,4.72
2023-03-02T02:47:20.291Z,5.57
2023-03-02T02:47:51.688Z,5.00
2023-03-02T02:48:23.108Z,5.05
2023-03-02T02:48:54.548Z,5.07
2023-03-02T02:49:25.938Z,4.63
2023-03-02T02:49:57.344Z,4.96
2023-03-02T02:50:28.756Z,5.18
2023-03-02T02:51:00.393Z,4.59
2023-03-02T02:51:31.919Z,4.79
2023-03-02T02:52:03.323Z,5.70
2023-03-02T02:52:34.735Z,5.33
2023-03-02T02:53:06.148Z,5.33
2023-03-02T02:53:37.564Z,5.30
2023-03-02T02:54:08.974Z,5.23
2023-03-02T02:54:40.383Z,4.80
2023-03-02T02:55:11.790Z,5.03
2023-03-02T02:55:43.141Z,5.37
2023-03-02T02:56:14.575Z,5.02
2023-03-02T02:56:45.977Z,5.30
2023-03-02T02:57:17.383Z,5.55
2023-03-02T02:57:48.797Z,4.50
2023-03-02T02:58:20.189Z,4.72
2023-03-02T02:58:51.602Z,4.85
2023-03-02T02:59:23.015Z,4.71
2023-03-02T02:59:54.412Z,5.48
2023-03-02T03:00:25.829Z,5.54
2023-03-02T03:00:57.265Z,5.42
2023-03-02T03:01:28.740Z,4.80
2023-03-02T03:02:00.171Z,5.49
2023-03-02T03:02:31.589Z,5.44
2023-03-02T03:03:03.005Z,5.30
2023-03-02T03:03:34.428Z,4.91
2023-03-02T03:04:05.889Z,5.26
2023-03-02T03:04:37.382Z,4.98
2023-03-02T03:05:08.838Z,5.32
2023-03-02T03:05:40.233Z,4.84
2023-03-02T03:06:11.648Z,4.22
2023-03-02T03:06:43.050Z,4.58
2023-03-02T03:07:14.455Z,4.85
2023-03-02T03:07:45.857Z,5.49
2023-03-02T03:08:17.248Z,5.03
2023-03-02T03:08:48.656Z,4.80
2023-03-02T03:09:20.094Z,4.81
2023-03-02T03:09:51.544Z,5.00
2023-03-02T03:10:23.013Z,4.30
2023-03-02T03:10:54.419Z,5.32
2023-03-02T03:11:25.814Z,5.49
2023-03-02T03:11:57.222Z,5.17
2023-03-02T03:12:28.639Z,5.45
2023-03-02T03:13:00.047Z,4.18
2023-03-02T03:13:31.462Z,5.18
2023-03-02T03:14:02.868Z,4.43
2023-03-02T03:14:34.258Z,5.08
2023-03-02T03:15:05.659Z,5.21
2023-03-02T03:15:37.112Z,5.29
2023-03-02T03:16:08.528Z,4.95
2023-03-02T03:16:39.968Z,4.64
2023-03-02T03:17:11.470Z,4.79
2023-03-02T03:17:42.904Z,5.00
2023-03-02T03:18:14.325Z,4.83
2023-03-02T03:18:45.753Z,4.56
2023-03-02T03:19:17.184Z,4.47
2023-03-02T03:19:48.585Z,5.10
2023-03-02T03:20:20.009Z,5.21
2023-03-02T03:20:51.431Z,4.88
2023-03-02T03:21:22.844Z,4.32
2023-03-02T03:21:54.262Z,4.37
2023-03-02T03:22:25.652Z,5.53
2023-03-02T03:22:57.062Z,4.55
2023-03-02T03:23:28.450Z,5.08
2023-03-02T03:23:59.843Z,5.29
2023-03-02T03:24:31.251Z,5.73
2023-03-02T03:25:02.650Z,5.45
2023-03-02T03:25:34.079Z,4.74
2023-03-02T03:26:05.474Z,4.60
2023-03-02T03:26:36.883Z,5.11
2023-03-02T03:27:08.334Z,4.59
2023-03-02T03:27:39.747Z,4.44
2023-03-02T03:28:11.137Z,4.51
2023-03-02T03:28:42.532Z,5.58
2023-03-02T03:29:13.950Z,4.93
2023-03-02T03:29:45.381Z,4.77
2023-03-02T03:30:16.779Z,4.94
2023-03-02T03:30:48.284Z,4.96
2023-03-02T03:31:19.839Z,5.00
2023-03-02T03:31:51.336Z,4.50
2023-03-02T03:32:22.763Z,4.74
2023-03-02T03:32:54.214Z,4.95
2023-03-02T03:33:25.617Z,4.99
2023-03-02T03:33:57.026Z,4.44
2023-03-02T03:34:28.434Z,4.66
2023-03-02T03:34:59.839Z,4.86
2023-03-02T03:35:31.294Z,5.12
2023-03-02T03:36:02.774Z,4.85
2023-03-02T03:36:34.613Z,4.85
2023-03-02T03:37:06.178Z,4.88
2023-03-02T03:37:37.593Z,4.84
2023-03-02T03:38:09.006Z,4.73
2023-03-02T03:38:40.403Z,4.76
2023-03-02T03:39:11.795Z,4.12
2023-03-02T03:39:43.230Z,4.62
2023-03-02T03:40:14.650Z,4.68
2023-03-02T03:40:46.057Z,4.51
2023-03-02T03:41:17.513Z,4.96
2023-03-02T03:41:48.919Z,4.58
2023-03-02T03:42:20.333Z,5.43
2023-03-02T03:42:51.795Z,4.60
2023-03-02T03:43:23.203Z,4.53
2023-03-02T03:43:54.610Z,5.04
2023-03-02T03:44:26.001Z,4.47
2023-03-02T03:44:57.393Z,4.43
2023-03-02T03:45:30.352Z,4.00
2023-03-02T03:46:02.025Z,4.36
2023-03-02T03:46:33.810Z,4.54
2023-03-02T03:47:05.541Z,5.07
2023-03-02T03:47:36.954Z,5.42
2023-03-02T03:48:08.367Z,3.93
2023-03-02T03:48:39.768Z,4.27
2023-03-02T03:49:11.163Z,4.42
2023-03-02T03:49:42.625Z,4.61
2023-03-02T03:50:14.053Z,4.60
2023-03-02T03:50:45.457Z,4.48
2023-03-02T03:51:16.881Z,4.48
2023-03-02T03:51:48.302Z,4.78
2023-03-02T03:52:19.696Z,4.58
2023-03-02T03:52:51.084Z,4.65
2023-03-02T03:53:22.494Z,4.74
2023-03-02T03:53:53.924Z,5.06
2023-03-02T03:54:25.349Z,3.85
2023-03-02T03:54:56.755Z,4.02
2023-03-02T03:55:28.167Z,5.29
2023-03-02T03:55:59.597Z,4.59
2023-03-02T03:56:31.292Z,3.69
2023-03-02T03:57:03.012Z,4.33
2023-03-02T03:57:34.440Z,4.90
2023-03-02T03:58:05.863Z,4.62
2023-03-02T03:58:37.345Z,4.53
2023-03-02T03:59:08.837Z,4.60
2023-03-02T03:59:40.251Z,4.34
2023-03-02T04:00:11.663Z,4.78
2023-03-02T04:00:43.076Z,4.46
2023-03-02T04:01:14.530Z,4.80
2023-03-02T04:01:46.067Z,4.35
2023-03-02T04:02:17.612Z,4.53
2023-03-02T04:02:49.097Z,4.78
2023-03-02T04:03:20.545Z,4.29
2023-03-02T04:03:52.093Z,3.76
2023-03-02T04:04:23.484Z,4.12
2023-03-02T04:04:54.880Z,4.44
2023-03-02T04:05:26.273Z,4.97
2023-03-02T04:05:57.663Z,5.08
2023-03-02T04:06:29.060Z,4.15
2023-03-02T04:07:00.507Z,4.16
2023-03-02T04:07:31.933Z,4.04
2023-03-02T04:08:03.339Z,4.36
2023-03-02T04:08:34.755Z,4.81
2023-03-02T04:09:06.150Z,4.90
2023-03-02T04:09:37.538Z,4.58
2023-03-02T04:10:08.939Z,3.61
2023-03-02T04:10:40.351Z,4.11
2023-03-02T04:11:11.743Z,4.80
2023-03-02T04:11:43.160Z,4.36
2023-03-02T04:12:14.574Z,4.46
2023-03-02T04:12:45.989Z,4.30
2023-03-02T04:13:17.378Z,4.65
2023-03-02T04:13:48.772Z,4.37
2023-03-02T04:14:20.183Z,4.41
2023-03-02T04:14:51.585Z,3.98
2023-03-02T04:15:22.977Z,3.90
2023-03-02T04:15:54.388Z,4.27
2023-03-02T04:16:25.807Z,4.24
2023-03-02T04:16:57.211Z,4.68
2023-03-02T04:17:28.635Z,4.42
2023-03-02T04:18:00.066Z,3.94
2023-03-02T04:18:31.490Z,4.74
2023-03-02T04:19:02.920Z,4.60
2023-03-02T04:19:34.339Z,4.19
2023-03-02T04:20:05.765Z,4.35
2023-03-02T04:20:37.202Z,3.74
2023-03-02T04:21:08.623Z,4.07
2023-03-02T04:21:40.040Z,4.35
2023-03-02T04:22:11.435Z,4.32
2023-03-02T04:22:42.875Z,4.31
2023-03-02T04:23:14.285Z,3.97
2023-03-02T04:23:45.693Z,4.54
2023-03-02T04:24:17.115Z,4.72
2023-03-02T04:24:48.508Z,4.13
2023-03-02T04:25:19.924Z,4.62
2023-03-02T04:25:51.319Z,4.21
2023-03-02T04:26:22.762Z,4.59
2023-03-02T04:26:54.164Z,4.94
2023-03-02T04:27:25.556Z,4.21
2023-03-02T04:27:56.985Z,4.42
2023-03-02T04:28:28.412Z,4.29
2023-03-02T04:28:59.812Z,4.62
2023-03-02T04:29:31.228Z,3.67
2023-03-02T04:30:02.625Z,4.35
2023-03-02T04:30:34.037Z,4.43
2023-03-02T04:31:05.491Z,4.16
2023-03-02T04:31:36.907Z,4.73
2023-03-02T04:32:08.406Z,4.59
2023-03-02T04:32:39.812Z,4.38
2023-03-02T04:33:11.223Z,4.19
2023-03-02T04:33:42.644Z,4.31
2023-03-02T04:34:14.047Z,4.17
2023-03-02T04:34:45.455Z,4.43
2023-03-02T04:35:16.869Z,4.62
2023-03-02T04:35:48.343Z,4.29
2023-03-02T04:36:19.785Z,4.13
2023-03-02T04:36:51.191Z,3.91
2023-03-02T04:37:22.597Z,4.30
2023-03-02T04:37:54.048Z,4.69
2023-03-02T04:38:25.466Z,3.94
2023-03-02T04:38:56.896Z,3.95
2023-03-02T04:39:28.310Z,3.97
2023-03-02T04:39:59.703Z,4.63
2023-03-02T04:40:31.117Z,3.98
2023-03-02T04:41:02.514Z,3.94
2023-03-02T04:41:33.942Z,4.15
2023-03-02T04:42:05.352Z,4.37
2023-03-02T04:42:36.757Z,4.44
2023-03-02T04:43:08.169Z,4.24
2023-03-02T04:43:39.570Z,3.74
2023-03-02T04:44:10.998Z,4.00
2023-03-02T04:44:42.391Z,4.90
2023-03-02T04:45:13.810Z,4.42
2023-03-02T04:45:45.195Z,4.34
2023-03-02T04:46:16.666Z,4.13
2023-03-02T04:46:48.118Z,4.55
2023-03-02T04:47:19.525Z,4.34
2023-03-02T04:47:51.155Z,4.45
2023-03-02T04:48:22.568Z,4.55
2023-03-02T04:48:53.958Z,4.35
2023-03-02T04:49:25.399Z,4.25
2023-03-02T04:49:56.842Z,4.01
2023-03-02T04:50:28.259Z,4.49
2023-03-02T04:50:59.659Z,4.17
2023-03-02T04:51:31.042Z,3.96
2023-03-02T04:52:02.431Z,3.92
2023-03-02T04:52:33.853Z,4.09
2023-03-02T04:53:05.292Z,4.06
2023-03-02T04:53:36.692Z,3.42
2023-03-02T04:54:08.089Z,3.45
2023-03-02T04:54:39.586Z,4.28
2023-03-02T04:55:10.987Z,4.38
2023-03-02T04:55:42.395Z,3.97
2023-03-02T04:56:13.803Z,4.33
2023-03-02T04:56:45.204Z,3.97
2023-03-02T04:57:16.622Z,4.65
2023-03-02T04:57:48.033Z,3.59
2023-03-02T04:58:19.452Z,3.63
2023-03-02T04:58:50.862Z,4.20
2023-03-02T04:59:22.317Z,4.13
2023-03-02T04:59:53.769Z,4.33
2023-03-02T05:00:25.196Z,4.09
2023-03-02T05:00:56.621Z,3.85
2023-03-02T05:01:28.032Z,4.22
2023-03-02T05:01:59.485Z,4.26
2023-03-02T05:02:30.943Z,3.44
2023-03-02T05:03:02.389Z,3.74
2023-03-02T05:03:33.791Z,4.15
2023-03-02T05:04:05.243Z,3.90
2023-03-02T05:04:36.783Z,4.44
2023-03-02T05:05:08.269Z,4.19
2023-03-02T05:05:39.664Z,3.82
2023-03-02T05:06:11.091Z,3.83
2023-03-02T05:06:42.491Z,4.01
2023-03-02T05:07:13.888Z,4.20
2023-03-02T05:07:45.288Z,4.04
2023-03-02T05:08:16.703Z,4.09
2023-03-02T05:08:48.125Z,3.73
2023-03-02T05:09:19.546Z,3.56
2023-03-02T05:09:50.944Z,3.61
2023-03-02T05:10:22.390Z,3.74
2023-03-02T05:10:53.802Z,3.70
2023-03-02T05:11:25.198Z,3.71
2023-03-02T05:11:56.643Z,3.90
2023-03-02T05:12:28.044Z,4.29
2023-03-02T05:12:59.434Z,4.30
2023-03-02T05:13:30.840Z,3.95
2023-03-02T05:14:02.240Z,3.91
2023-03-02T05:14:33.648Z,4.10
2023-03-02T05:15:05.061Z,4.23
2023-03-02T05:15:36.480Z,4.14
2023-03-02T05:16:07.918Z,4.34
2023-03-02T05:16:39.483Z,3.70
2023-03-02T05:17:10.917Z,4.22
2023-03-02T05:17:42.316Z,3.88
2023-03-02T05:18:13.726Z,3.79
2023-03-02T05:18:45.142Z,3.99
2023-03-02T05:19:16.543Z,3.23
2023-03-02T05:19:47.950Z,3.93
2023-03-02T05:20:19.338Z,3.79
2023-03-02T05:20:50.783Z,3.66
2023-03-02T05:21:22.181Z,3.82
2023-03-02T05:21:53.637Z,4.04
2023-03-02T05:22:25.060Z,4.28
2023-03-02T05:22:56.469Z,4.38
2023-03-02T05:23:27.866Z,3.87
2023-03-02T05:23:59.272Z,4.04
2023-03-02T05:24:30.677Z,3.94
2023-03-02T05:25:02.085Z,3.98
2023-03-02T05:25:33.479Z,3.59
2023-03-02T05:26:04.921Z,3.57
2023-03-02T05:26:36.319Z,3.98
2023-03-02T05:27:07.720Z,3.73
2023-03-02T05:27:39.131Z,3.57
2023-03-02T05:28:10.542Z,4.19
2023-03-02T05:28:41.946Z,3.08
2023-03-02T05:29:13.383Z,3.67
2023-03-02T05:29:44.798Z,3.69
2023-03-02T05:30:16.191Z,3.73
2023-03-02T05:30:47.614Z,4.01
2023-03-02T05:31:19.108Z,3.75
2023-03-02T05:31:50.610Z,3.41
2023-03-02T05:32:22.180Z,4.17
2023-03-02T05:32:53.652Z,4.23
2023-03-02T05:33:25.062Z,4.06
2023-03-02T05:33:56.466Z,3.60
2023-03-02T05:34:27.890Z,3.87
2023-03-02T05:34:59.315Z,3.85
2023-03-02T05:35:30.802Z,4.37
2023-03-02T05:36:02.267Z,3.96
2023-03-02T05:36:34.141Z,3.66
2023-03-02T05:37:05.726Z,3.78
2023-03-02T05:37:37.130Z,3.64
2023-03-02T05:38:08.548Z,3.76
2023-03-02T05:38:39.935Z,4.35
2023-03-02T05:39:11.334Z,3.92
2023-03-02T05:39:42.758Z,3.39
2023-03-02T05:40:14.145Z,3.04
2023-03-02T05:40:45.536Z,3.79
2023-03-02T05:41:16.927Z,3.72
2023-03-02T05:41:48.363Z,4.09
2023-03-02T05:42:19.763Z,3.63
2023-03-02T05:42:51.177Z,3.94
2023-03-02T05:43:22.582Z,4.01
2023-03-02T05:43:54.000Z,3.34
2023-03-02T05:44:25.414Z,4.09
2023-03-02T05:44:56.829Z,3.66
2023-03-02T05:45:28.232Z,3.78
2023-03-02T05:45:59.637Z,3.99
2023-03-02T05:46:31.405Z,3.53
2023-03-02T05:47:03.254Z,3.53
2023-03-02T05:47:34.666Z,3.77
2023-03-02T05:48:06.055Z,4.43
2023-03-02T05:48:37.452Z,4.19
2023-03-02T05:49:08.859Z,4.21
2023-03-02T05:49:40.265Z,3.60
2023-03-02T05:50:11.685Z,3.84
2023-03-02T05:50:43.087Z,3.85
2023-03-02T05:51:14.484Z,3.73
2023-03-02T05:51:45.919Z,3.90
2023-03-02T05:52:17.331Z,3.77
2023-03-02T05:52:48.749Z,3.77
2023-03-02T05:53:20.161Z,3.39
2023-03-02T05:53:51.572Z,3.38
2023-03-02T05:54:23.035Z,3.11
2023-03-02T05:54:54.454Z,3.26
2023-03-02T05:55:25.874Z,3.26
2023-03-02T05:55:57.271Z,3.76
2023-03-02T05:56:28.681Z,4.11
2023-03-02T05:57:00.109Z,3.74
2023-03-02T05:57:31.533Z,4.13
2023-03-02T05:58:02.953Z,3.48
2023-03-02T05:58:34.367Z,3.57
2023-03-02T05:59:05.789Z,3.14
2023-03-02T05:59:37.194Z,3.42
2023-03-02T06:00:08.596Z,4.00
2023-03-02T06:00:40.025Z,3.56
2023-03-02T06:01:13.667Z,3.44
2023-03-02T06:01:46.729Z,3.63
2023-03-02T06:02:18.211Z,3.94
2023-03-02T06:02:49.703Z,4.15
2023-03-02T06:03:21.202Z,3.47
2023-03-02T06:03:52.607Z,3.46
2023-03-02T06:04:23.997Z,3.36
2023-03-02T06:04:55.416Z,3.61
2023-03-02T06:05:26.820Z,3.51
2023-03-02T06:05:58.222Z,3.67
2023-03-02T06:06:29.626Z,4.03
2023-03-02T06:07:01.279Z,3.33
2023-03-02T06:07:32.695Z,4.17
2023-03-02T06:08:04.090Z,4.29
2023-03-02T06:08:35.504Z,4.00
2023-03-02T06:09:06.924Z,3.92
2023-03-02T06:09:38.347Z,3.79
2023-03-02T06:10:09.741Z,3.61
2023-03-02T06:10:41.151Z,4.03
2023-03-02T06:11:12.555Z,3.94
2023-03-02T06:11:43.949Z,3.51
2023-03-02T06:12:15.380Z,3.43
2023-03-02T06:12:46.810Z,3.10
2023-03-02T06:13:18.226Z,4.00
2023-03-02T06:13:49.688Z,3.43
2023-03-02T06:14:21.099Z,3.74
2023-03-02T06:14:52.505Z,3.79
2023-03-02T06:15:23.925Z,3.63
2023-03-02T06:15:55.351Z,3.49
2023-03-02T06:16:26.777Z,3.99
2023-03-02T06:16:58.211Z,4.27
2023-03-02T06:17:29.642Z,3.64
2023-03-02T06:18:01.032Z,3.95
2023-03-02T06:18:32.448Z,3.70
2023-03-02T06:19:03.868Z,3.63
2023-03-02T06:19:35.275Z,3.36
2023-03-02T06:20:06.666Z,3.64
2023-03-02T06:20:38.079Z,4.46
2023-03-02T06:21:09.497Z,4.19
2023-03-02T06:21:40.907Z,3.56
2023-03-02T06:22:12.341Z,3.64
2023-03-02T06:22:43.756Z,3.60
2023-03-02T06:23:15.165Z,3.78
2023-03-02T06:23:46.560Z,3.55
2023-03-02T06:24:17.969Z,4.23
2023-03-02T06:24:49.577Z,3.89
2023-03-02T06:25:21.019Z,3.91
2023-03-02T06:25:52.433Z,3.77
2023-03-02T06:26:23.833Z,3.61
2023-03-02T06:26:55.229Z,3.60
2023-03-02T06:27:26.689Z,3.40
2023-03-02T06:27:58.079Z,3.21
2023-03-02T06:28:29.491Z,3.88
2023-03-02T06:29:00.888Z,3.38
2023-03-02T06:29:32.354Z,3.51
2023-03-02T06:30:03.834Z,3.91
2023-03-02T06:30:35.261Z,3.82
2023-03-02T06:31:06.679Z,3.88
2023-03-02T06:31:38.147Z,3.40
2023-03-02T06:32:09.707Z,3.89
2023-03-02T06:32:41.220Z,3.47
2023-03-02T06:33:12.623Z,3.73
2023-03-02T06:33:44.018Z,4.05
2023-03-02T06:34:15.412Z,3.47
2023-03-02T06:34:46.920Z,3.85
2023-03-02T06:35:18.589Z,3.78
2023-03-02T06:35:50.179Z,3.70
2023-03-02T06:36:21.758Z,3.77
2023-03-02T06:36:53.212Z,3.48
2023-03-02T06:37:24.606Z,3.77
2023-03-02T06:37:56.037Z,3.71
2023-03-02T06:38:27.440Z,3.58
2023-03-02T06:38:58.831Z,3.72
2023-03-02T06:39:30.220Z,3.53
2023-03-02T06:40:01.668Z,3.13
2023-03-02T06:40:33.058Z,3.46
2023-03-02T06:41:04.475Z,3.36
2023-03-02T06:41:35.892Z,3.57
2023-03-02T06:42:07.294Z,4.03
2023-03-02T06:42:38.736Z,3.66
2023-03-02T06:43:10.123Z,4.10
2023-03-02T06:43:41.516Z,2.85
2023-03-02T06:44:12.931Z,3.48
2023-03-02T06:44:44.323Z,3.69
2023-03-02T06:45:15.710Z,3.64
2023-03-02T06:45:47.515Z,3.30
2023-03-02T06:46:19.556Z,3.53
2023-03-02T06:46:51.401Z,3.64
2023-03-02T06:47:23.347Z,3.50
2023-03-02T06:47:55.263Z,3.70
2023-03-02T06:48:26.751Z,3.88
2023-03-02T06:48:58.148Z,3.89
2023-03-02T06:49:29.539Z,3.24
2023-03-02T06:50:00.942Z,3.23
2023-03-02T06:50:32.350Z,3.42
2023-03-02T06:51:03.749Z,3.49
2023-03-02T06:51:35.162Z,3.28
2023-03-02T06:52:06.552Z,3.99
2023-03-02T06:52:37.969Z,3.18
2023-03-02T06:53:09.411Z,3.13
2023-03-02T06:53:40.833Z,3.46
2023-03-02T06:54:12.237Z,3.58
2023-03-02T06:54:43.660Z,4.13
2023-03-02T06:55:15.051Z,4.06
2023-03-02T06:55:46.468Z,3.75
2023-03-02T06:56:17.874Z,3.88
2023-03-02T06:56:49.283Z,3.39
2023-03-02T06:57:20.679Z,3.62
2023-03-02T06:57:52.109Z,3.46
2023-03-02T06:58:23.522Z,3.59